Alexandra, New Zealand
Current Conditions -  °F | °C
As of 3:30 AM on Thursday 23 Oct 2014 (Local Time) from NZCH Reporting Station
Overcast Overcast  
Wind Chill: 52°   Ceiling: 1700
Heat Index: 52°   Visibility: 6mi
Dew Point: 48°   Wind: 13mph
Humidity: 88%   Direction: 60°ENE
Pressure: 29.94"   Gusts: NA
Location:  45.25°S, 169.39°E
Report Text: NZCH 221530Z AUTO 06011KT 9999 OVC017/// 11/09 Q1014 TEMPOBKN014
Loading
Personal Weather Stations






























Interactive Weather Map
Tropical Storm Tracking
New forecast layout! Learn more

10-Day Weather Forecast

Advertisements
Track Severe Weather on mobile